sensor_id;sensor_type;location;lat;lon;timestamp;P1;durP1;ratioP1;P2;durP2;ratioP2
16326;SDS011;34812;49.846;9.610;2023-04-26T00:00:52;29.67;;;26.53;;
16326;SDS011;34812;49.846;9.610;2023-04-26T00:01:54;27.27;;;24.40;;
16326;SDS011;34812;49.846;9.610;2023-04-26T00:02:57;21.50;;;18.83;;
16326;SDS011;34812;49.846;9.610;2023-04-26T00:03:59;19.00;;;14.70;;
16326;SDS011;34812;49.846;9.610;2023-04-26T00:05:00;16.83;;;14.37;;
16326;SDS011;34812;49.846;9.610;2023-04-26T00:06:04;18.67;;;15.53;;
16326;SDS011;34812;49.846;9.610;2023-04-26T00:07:08;18.13;;;14.10;;
16326;SDS011;34812;49.846;9.610;2023-04-26T00:08:12;21.13;;;18.80;;
16326;SDS011;34812;49.846;9.610;2023-04-26T00:09:13;18.07;;;16.23;;
16326;SDS011;34812;49.846;9.610;2023-04-26T00:10:15;15.23;;;13.70;;
16326;SDS011;34812;49.846;9.610;2023-04-26T00:11:15;15.63;;;13.43;;
16326;SDS011;34812;49.846;9.610;2023-04-26T00:12:17;16.87;;;15.00;;
16326;SDS011;34812;49.846;9.610;2023-04-26T00:13:18;21.57;;;15.53;;
16326;SDS011;34812;49.846;9.610;2023-04-26T00:14:20;16.63;;;14.93;;
16326;SDS011;34812;49.846;9.610;2023-04-26T00:15:20;14.23;;;12.43;;
16326;SDS011;34812;49.846;9.610;2023-04-26T00:16:22;16.03;;;11.53;;
16326;SDS011;34812;49.846;9.610;2023-04-26T00:17:23;14.03;;;10.67;;
16326;SDS011;34812;49.846;9.610;2023-04-26T00:18:25;14.37;;;11.67;;
16326;SDS011;34812;49.846;9.610;2023-04-26T00:19:26;14.30;;;12.80;;
16326;SDS011;34812;49.846;9.610;2023-04-26T00:20:27;15.03;;;12.73;;
16326;SDS011;34812;49.846;9.610;2023-04-26T00:21:30;12.63;;;11.33;;
16326;SDS011;34812;49.846;9.610;2023-04-26T00:22:32;12.93;;;11.47;;
16326;SDS011;34812;49.846;9.610;2023-04-26T00:23:32;11.20;;;10.13;;
16326;SDS011;34812;49.846;9.610;2023-04-26T00:24:35;12.17;;;10.87;;
16326;SDS011;34812;49.846;9.610;2023-04-26T00:25:36;11.50;;;10.30;;
16326;SDS011;34812;49.846;9.610;2023-04-26T00:26:38;12.67;;;9.50;;
16326;SDS011;34812;49.846;9.610;2023-04-26T00:27:39;10.47;;;9.17;;
16326;SDS011;34812;49.846;9.610;2023-04-26T00:28:41;12.77;;;9.67;;
16326;SDS011;34812;49.846;9.610;2023-04-26T00:29:42;12.93;;;11.23;;
16326;SDS011;34812;49.846;9.610;2023-04-26T00:30:43;21.27;;;17.67;;
16326;SDS011;34812;49.846;9.610;2023-04-26T00:31:47;26.03;;;23.13;;
16326;SDS011;34812;49.846;9.610;2023-04-26T00:32:49;23.43;;;19.47;;
16326;SDS011;34812;49.846;9.610;2023-04-26T00:33:50;23.63;;;17.30;;
16326;SDS011;34812;49.846;9.610;2023-04-26T00:34:52;16.10;;;13.63;;
16326;SDS011;34812;49.846;9.610;2023-04-26T00:35:52;16.77;;;12.70;;
16326;SDS011;34812;49.846;9.610;2023-04-26T00:36:56;11.90;;;10.60;;
16326;SDS011;34812;49.846;9.610;2023-04-26T00:37:56;13.40;;;11.23;;
16326;SDS011;34812;49.846;9.610;2023-04-26T00:38:58;11.97;;;10.33;;
16326;SDS011;34812;49.846;9.610;2023-04-26T00:39:59;13.43;;;10.47;;
16326;SDS011;34812;49.846;9.610;2023-04-26T00:41:01;10.37;;;9.27;;
16326;SDS011;34812;49.846;9.610;2023-04-26T00:42:02;10.63;;;9.63;;
16326;SDS011;34812;49.846;9.610;2023-04-26T00:43:04;11.43;;;9.80;;
16326;SDS011;34812;49.846;9.610;2023-04-26T00:44:05;13.43;;;10.60;;
16326;SDS011;34812;49.846;9.610;2023-04-26T00:45:07;16.80;;;12.80;;
16326;SDS011;34812;49.846;9.610;2023-04-26T00:46:08;13.77;;;11.50;;
16326;SDS011;34812;49.846;9.610;2023-04-26T00:47:11;13.40;;;11.10;;
16326;SDS011;34812;49.846;9.610;2023-04-26T00:48:13;13.50;;;12.10;;
16326;SDS011;34812;49.846;9.610;2023-04-26T00:49:15;15.50;;;12.87;;
16326;SDS011;34812;49.846;9.610;2023-04-26T00:50:18;13.67;;;12.27;;
16326;SDS011;34812;49.846;9.610;2023-04-26T00:51:20;16.77;;;12.23;;
16326;SDS011;34812;49.846;9.610;2023-04-26T00:52:23;16.03;;;13.10;;
16326;SDS011;34812;49.846;9.610;2023-04-26T00:53:25;17.27;;;11.87;;
16326;SDS011;34812;49.846;9.610;2023-04-26T00:54:27;15.57;;;11.97;;
16326;SDS011;34812;49.846;9.610;2023-04-26T00:55:28;11.70;;;10.17;;
16326;SDS011;34812;49.846;9.610;2023-04-26T00:56:30;14.57;;;10.77;;
16326;SDS011;34812;49.846;9.610;2023-04-26T00:57:31;13.80;;;10.93;;
16326;SDS011;34812;49.846;9.610;2023-04-26T00:58:33;16.00;;;10.57;;
16326;SDS011;34812;49.846;9.610;2023-04-26T00:59:34;12.90;;;10.83;;
16326;SDS011;34812;49.846;9.610;2023-04-26T01:00:36;11.33;;;9.90;;
16326;SDS011;34812;49.846;9.610;2023-04-26T01:01:36;15.20;;;10.53;;
16326;SDS011;34812;49.846;9.610;2023-04-26T01:02:39;12.97;;;9.73;;
16326;SDS011;34812;49.846;9.610;2023-04-26T01:03:41;10.30;;;9.10;;
16326;SDS011;34812;49.846;9.610;2023-04-26T01:04:45;13.20;;;8.87;;
16326;SDS011;34812;49.846;9.610;2023-04-26T01:05:47;12.90;;;8.47;;
16326;SDS011;34812;49.846;9.610;2023-04-26T01:06:48;10.30;;;9.23;;
16326;SDS011;34812;49.846;9.610;2023-04-26T01:07:51;12.87;;;8.67;;
16326;SDS011;34812;49.846;9.610;2023-04-26T01:08:52;10.83;;;9.40;;
16326;SDS011;34812;49.846;9.610;2023-04-26T01:09:57;11.17;;;9.43;;
16326;SDS011;34812;49.846;9.610;2023-04-26T01:10:59;13.50;;;9.60;;
16326;SDS011;34812;49.846;9.610;2023-04-26T01:12:01;12.70;;;10.07;;
16326;SDS011;34812;49.846;9.610;2023-04-26T01:13:02;9.77;;;8.87;;
16326;SDS011;34812;49.846;9.610;2023-04-26T01:14:04;10.87;;;9.50;;
16326;SDS011;34812;49.846;9.610;2023-04-26T01:15:05;10.90;;;9.87;;
16326;SDS011;34812;49.846;9.610;2023-04-26T01:16:08;10.67;;;9.50;;
16326;SDS011;34812;49.846;9.610;2023-04-26T01:17:10;13.37;;;9.17;;
16326;SDS011;34812;49.846;9.610;2023-04-26T01:18:13;11.93;;;9.50;;
16326;SDS011;34812;49.846;9.610;2023-04-26T01:19:14;12.83;;;10.20;;
16326;SDS011;34812;49.846;9.610;2023-04-26T01:20:16;11.80;;;10.57;;
16326;SDS011;34812;49.846;9.610;2023-04-26T01:21:18;15.80;;;10.90;;
16326;SDS011;34812;49.846;9.610;2023-04-26T01:22:21;15.30;;;10.77;;
16326;SDS011;34812;49.846;9.610;2023-04-26T01:23:24;14.73;;;11.57;;
16326;SDS011;34812;49.846;9.610;2023-04-26T01:24:26;14.27;;;11.17;;
16326;SDS011;34812;49.846;9.610;2023-04-26T01:25:27;14.47;;;12.53;;
16326;SDS011;34812;49.846;9.610;2023-04-26T01:26:29;16.67;;;12.03;;
16326;SDS011;34812;49.846;9.610;2023-04-26T01:27:30;15.57;;;12.77;;
16326;SDS011;34812;49.846;9.610;2023-04-26T01:28:32;14.67;;;13.17;;
16326;SDS011;34812;49.846;9.610;2023-04-26T01:29:33;18.70;;;13.13;;
16326;SDS011;34812;49.846;9.610;2023-04-26T01:30:37;14.73;;;13.23;;
16326;SDS011;34812;49.846;9.610;2023-04-26T01:31:38;19.03;;;12.17;;
16326;SDS011;34812;49.846;9.610;2023-04-26T01:32:40;13.50;;;11.13;;
16326;SDS011;34812;49.846;9.610;2023-04-26T01:33:41;13.63;;;11.93;;
16326;SDS011;34812;49.846;9.610;2023-04-26T01:34:42;16.17;;;10.60;;
16326;SDS011;34812;49.846;9.610;2023-04-26T01:35:44;11.27;;;10.13;;
16326;SDS011;34812;49.846;9.610;2023-04-26T01:36:46;13.13;;;10.60;;
16326;SDS011;34812;49.846;9.610;2023-04-26T01:37:46;16.23;;;10.83;;
16326;SDS011;34812;49.846;9.610;2023-04-26T01:38:49;11.90;;;10.23;;
16326;SDS011;34812;49.846;9.610;2023-04-26T01:39:50;12.73;;;10.70;;
16326;SDS011;34812;49.846;9.610;2023-04-26T01:40:53;12.37;;;9.80;;
16326;SDS011;34812;49.846;9.610;2023-04-26T01:41:55;12.03;;;9.53;;
16326;SDS011;34812;49.846;9.610;2023-04-26T01:42:58;11.10;;;9.63;;
16326;SDS011;34812;49.846;9.610;2023-04-26T01:44:02;12.27;;;10.30;;
16326;SDS011;34812;49.846;9.610;2023-04-26T01:45:05;11.67;;;10.30;;
16326;SDS011;34812;49.846;9.610;2023-04-26T01:46:26;11.57;;;10.00;;
16326;SDS011;34812;49.846;9.610;2023-04-26T01:47:28;11.47;;;10.23;;
16326;SDS011;34812;49.846;9.610;2023-04-26T01:48:28;13.83;;;10.23;;
16326;SDS011;34812;49.846;9.610;2023-04-26T01:49:30;11.50;;;10.40;;
16326;SDS011;34812;49.846;9.610;2023-04-26T01:50:31;12.33;;;10.77;;
16326;SDS011;34812;49.846;9.610;2023-04-26T01:51:33;15.20;;;10.80;;
16326;SDS011;34812;49.846;9.610;2023-04-26T01:52:35;11.20;;;9.90;;
16326;SDS011;34812;49.846;9.610;2023-04-26T01:53:37;11.33;;;10.10;;
16326;SDS011;34812;49.846;9.610;2023-04-26T01:54:39;12.80;;;10.20;;
16326;SDS011;34812;49.846;9.610;2023-04-26T01:55:41;12.33;;;10.40;;
16326;SDS011;34812;49.846;9.610;2023-04-26T01:56:42;11.70;;;9.47;;
16326;SDS011;34812;49.846;9.610;2023-04-26T01:57:44;15.43;;;9.87;;
16326;SDS011;34812;49.846;9.610;2023-04-26T01:58:45;11.20;;;9.37;;
16326;SDS011;34812;49.846;9.610;2023-04-26T01:59:47;12.03;;;9.47;;
16326;SDS011;34812;49.846;9.610;2023-04-26T02:00:48;11.47;;;9.77;;
16326;SDS011;34812;49.846;9.610;2023-04-26T02:01:49;11.27;;;10.07;;
16326;SDS011;34812;49.846;9.610;2023-04-26T02:02:53;15.00;;;10.40;;
16326;SDS011;34812;49.846;9.610;2023-04-26T02:03:56;14.43;;;10.33;;
16326;SDS011;34812;49.846;9.610;2023-04-26T02:04:57;14.60;;;11.37;;
16326;SDS011;34812;49.846;9.610;2023-04-26T02:06:00;10.60;;;9.43;;
16326;SDS011;34812;49.846;9.610;2023-04-26T02:07:02;12.17;;;10.10;;
16326;SDS011;34812;49.846;9.610;2023-04-26T02:08:04;11.83;;;8.70;;
16326;SDS011;34812;49.846;9.610;2023-04-26T02:09:05;13.93;;;9.53;;
16326;SDS011;34812;49.846;9.610;2023-04-26T02:10:09;11.20;;;9.63;;
16326;SDS011;34812;49.846;9.610;2023-04-26T02:11:10;10.70;;;9.67;;
16326;SDS011;34812;49.846;9.610;2023-04-26T02:12:12;10.57;;;9.03;;
16326;SDS011;34812;49.846;9.610;2023-04-26T02:13:13;12.10;;;9.10;;
16326;SDS011;34812;49.846;9.610;2023-04-26T02:14:15;10.27;;;9.27;;
16326;SDS011;34812;49.846;9.610;2023-04-26T02:15:16;11.40;;;9.13;;
16326;SDS011;34812;49.846;9.610;2023-04-26T02:16:18;11.33;;;9.90;;
16326;SDS011;34812;49.846;9.610;2023-04-26T02:17:19;13.07;;;9.63;;
16326;SDS011;34812;49.846;9.610;2023-04-26T02:18:21;11.27;;;9.63;;
16326;SDS011;34812;49.846;9.610;2023-04-26T02:19:23;11.87;;;10.00;;
16326;SDS011;34812;49.846;9.610;2023-04-26T02:20:25;14.40;;;9.93;;
16326;SDS011;34812;49.846;9.610;2023-04-26T02:21:27;14.10;;;9.80;;
16326;SDS011;34812;49.846;9.610;2023-04-26T02:22:30;12.43;;;10.50;;
16326;SDS011;34812;49.846;9.610;2023-04-26T02:23:30;14.20;;;10.27;;
16326;SDS011;34812;49.846;9.610;2023-04-26T02:24:32;12.70;;;10.40;;
16326;SDS011;34812;49.846;9.610;2023-04-26T02:25:34;12.20;;;9.33;;
16326;SDS011;34812;49.846;9.610;2023-04-26T02:26:37;16.53;;;10.50;;
16326;SDS011;34812;49.846;9.610;2023-04-26T02:27:37;12.63;;;10.80;;
16326;SDS011;34812;49.846;9.610;2023-04-26T02:28:40;14.83;;;9.97;;
16326;SDS011;34812;49.846;9.610;2023-04-26T02:29:41;15.43;;;10.43;;
16326;SDS011;34812;49.846;9.610;2023-04-26T02:30:42;11.33;;;10.17;;
16326;SDS011;34812;49.846;9.610;2023-04-26T02:31:43;13.53;;;10.70;;
16326;SDS011;34812;49.846;9.610;2023-04-26T02:32:47;14.83;;;11.87;;
16326;SDS011;34812;49.846;9.610;2023-04-26T02:33:48;12.83;;;11.37;;
16326;SDS011;34812;49.846;9.610;2023-04-26T02:34:50;13.03;;;11.13;;
16326;SDS011;34812;49.846;9.610;2023-04-26T02:35:51;11.80;;;10.80;;
16326;SDS011;34812;49.846;9.610;2023-04-26T02:36:52;12.70;;;10.80;;
16326;SDS011;34812;49.846;9.610;2023-04-26T02:37:54;13.37;;;10.40;;
16326;SDS011;34812;49.846;9.610;2023-04-26T02:38:55;11.07;;;9.00;;
16326;SDS011;34812;49.846;9.610;2023-04-26T02:39:56;11.87;;;9.73;;
16326;SDS011;34812;49.846;9.610;2023-04-26T02:40:59;10.10;;;9.07;;
16326;SDS011;34812;49.846;9.610;2023-04-26T02:42:01;12.30;;;9.57;;
16326;SDS011;34812;49.846;9.610;2023-04-26T02:43:04;9.93;;;8.97;;
16326;SDS011;34812;49.846;9.610;2023-04-26T02:44:04;13.63;;;10.27;;
16326;SDS011;34812;49.846;9.610;2023-04-26T02:45:07;12.83;;;10.50;;
16326;SDS011;34812;49.846;9.610;2023-04-26T02:46:08;11.40;;;10.10;;
16326;SDS011;34812;49.846;9.610;2023-04-26T02:47:10;12.40;;;11.10;;
16326;SDS011;34812;49.846;9.610;2023-04-26T02:48:10;14.07;;;10.70;;
16326;SDS011;34812;49.846;9.610;2023-04-26T02:49:13;12.07;;;10.87;;
16326;SDS011;34812;49.846;9.610;2023-04-26T02:50:13;11.50;;;10.37;;
16326;SDS011;34812;49.846;9.610;2023-04-26T02:51:15;11.83;;;10.63;;
16326;SDS011;34812;49.846;9.610;2023-04-26T02:52:16;13.80;;;10.20;;
16326;SDS011;34812;49.846;9.610;2023-04-26T02:53:18;13.60;;;10.67;;
16326;SDS011;34812;49.846;9.610;2023-04-26T02:54:19;12.40;;;11.13;;
16326;SDS011;34812;49.846;9.610;2023-04-26T02:55:21;13.87;;;10.40;;
16326;SDS011;34812;49.846;9.610;2023-04-26T02:56:23;12.30;;;10.57;;
16326;SDS011;34812;49.846;9.610;2023-04-26T02:57:25;14.30;;;10.73;;
16326;SDS011;34812;49.846;9.610;2023-04-26T02:58:26;12.37;;;10.20;;
16326;SDS011;34812;49.846;9.610;2023-04-26T02:59:29;11.73;;;10.63;;
16326;SDS011;34812;49.846;9.610;2023-04-26T03:00:29;13.73;;;10.23;;
16326;SDS011;34812;49.846;9.610;2023-04-26T03:01:33;13.23;;;9.77;;
16326;SDS011;34812;49.846;9.610;2023-04-26T03:02:34;12.23;;;9.90;;
16326;SDS011;34812;49.846;9.610;2023-04-26T03:03:36;10.77;;;9.67;;
16326;SDS011;34812;49.846;9.610;2023-04-26T03:04:37;11.33;;;9.80;;
16326;SDS011;34812;49.846;9.610;2023-04-26T03:05:39;10.77;;;9.77;;
16326;SDS011;34812;49.846;9.610;2023-04-26T03:06:40;11.60;;;10.40;;
16326;SDS011;34812;49.846;9.610;2023-04-26T03:07:42;12.53;;;11.23;;
16326;SDS011;34812;49.846;9.610;2023-04-26T03:08:43;14.93;;;10.87;;
16326;SDS011;34812;49.846;9.610;2023-04-26T03:09:45;11.17;;;9.87;;
16326;SDS011;34812;49.846;9.610;2023-04-26T03:10:45;12.17;;;10.97;;
16326;SDS011;34812;49.846;9.610;2023-04-26T03:11:48;12.27;;;10.07;;
16326;SDS011;34812;49.846;9.610;2023-04-26T03:12:49;11.23;;;10.13;;
16326;SDS011;34812;49.846;9.610;2023-04-26T03:13:51;16.60;;;11.77;;
16326;SDS011;34812;49.846;9.610;2023-04-26T03:14:52;13.90;;;12.50;;
16326;SDS011;34812;49.846;9.610;2023-04-26T03:15:54;17.33;;;13.13;;
16326;SDS011;34812;49.846;9.610;2023-04-26T03:16:55;13.40;;;12.00;;
16326;SDS011;34812;49.846;9.610;2023-04-26T03:17:58;16.37;;;12.50;;
16326;SDS011;34812;49.846;9.610;2023-04-26T03:19:00;17.43;;;12.10;;
16326;SDS011;34812;49.846;9.610;2023-04-26T03:20:03;17.60;;;13.60;;
16326;SDS011;34812;49.846;9.610;2023-04-26T03:21:05;17.40;;;12.20;;
16326;SDS011;34812;49.846;9.610;2023-04-26T03:22:07;13.87;;;12.30;;
16326;SDS011;34812;49.846;9.610;2023-04-26T03:23:08;12.40;;;11.10;;
16326;SDS011;34812;49.846;9.610;2023-04-26T03:24:10;11.97;;;10.77;;
16326;SDS011;34812;49.846;9.610;2023-04-26T03:25:12;13.70;;;10.37;;
16326;SDS011;34812;49.846;9.610;2023-04-26T03:26:16;11.67;;;10.47;;
16326;SDS011;34812;49.846;9.610;2023-04-26T03:27:18;14.17;;;10.60;;
16326;SDS011;34812;49.846;9.610;2023-04-26T03:28:20;16.10;;;10.60;;
16326;SDS011;34812;49.846;9.610;2023-04-26T03:29:21;13.90;;;12.03;;
16326;SDS011;34812;49.846;9.610;2023-04-26T03:30:23;15.80;;;12.80;;
16326;SDS011;34812;49.846;9.610;2023-04-26T03:31:24;16.80;;;12.90;;
16326;SDS011;34812;49.846;9.610;2023-04-26T03:32:25;16.47;;;12.20;;
16326;SDS011;34812;49.846;9.610;2023-04-26T03:33:26;15.40;;;11.90;;
16326;SDS011;34812;49.846;9.610;2023-04-26T03:34:28;14.93;;;12.03;;
16326;SDS011;34812;49.846;9.610;2023-04-26T03:35:30;20.70;;;12.80;;
16326;SDS011;34812;49.846;9.610;2023-04-26T03:36:33;14.57;;;12.33;;
16326;SDS011;34812;49.846;9.610;2023-04-26T03:37:37;13.83;;;11.83;;
16326;SDS011;34812;49.846;9.610;2023-04-26T03:38:40;14.13;;;12.47;;
16326;SDS011;34812;49.846;9.610;2023-04-26T03:39:43;14.03;;;11.93;;
16326;SDS011;34812;49.846;9.610;2023-04-26T03:40:44;14.33;;;11.80;;
16326;SDS011;34812;49.846;9.610;2023-04-26T03:41:46;16.47;;;11.73;;
16326;SDS011;34812;49.846;9.610;2023-04-26T03:42:49;17.70;;;11.60;;
16326;SDS011;34812;49.846;9.610;2023-04-26T03:43:50;15.73;;;12.63;;
16326;SDS011;34812;49.846;9.610;2023-04-26T03:44:51;18.00;;;13.07;;
16326;SDS011;34812;49.846;9.610;2023-04-26T03:45:55;19.03;;;14.40;;
16326;SDS011;34812;49.846;9.610;2023-04-26T03:46:56;21.33;;;13.67;;
16326;SDS011;34812;49.846;9.610;2023-04-26T03:47:58;15.10;;;12.47;;
16326;SDS011;34812;49.846;9.610;2023-04-26T03:48:59;15.27;;;12.33;;
16326;SDS011;34812;49.846;9.610;2023-04-26T03:50:00;17.50;;;12.20;;
16326;SDS011;34812;49.846;9.610;2023-04-26T03:51:03;24.27;;;14.17;;
16326;SDS011;34812;49.846;9.610;2023-04-26T03:52:05;17.67;;;13.20;;
16326;SDS011;34812;49.846;9.610;2023-04-26T03:53:06;16.60;;;14.27;;
16326;SDS011;34812;49.846;9.610;2023-04-26T03:54:08;16.07;;;12.83;;
16326;SDS011;34812;49.846;9.610;2023-04-26T03:55:08;15.83;;;12.70;;
16326;SDS011;34812;49.846;9.610;2023-04-26T03:56:11;19.07;;;12.57;;
16326;SDS011;34812;49.846;9.610;2023-04-26T03:57:11;13.83;;;12.33;;
16326;SDS011;34812;49.846;9.610;2023-04-26T03:58:15;17.77;;;12.57;;
16326;SDS011;34812;49.846;9.610;2023-04-26T03:59:16;15.40;;;11.93;;
16326;SDS011;34812;49.846;9.610;2023-04-26T04:00:18;14.90;;;11.73;;
16326;SDS011;34812;49.846;9.610;2023-04-26T04:01:21;17.33;;;11.57;;
16326;SDS011;34812;49.846;9.610;2023-04-26T04:02:24;14.83;;;10.33;;
16326;SDS011;34812;49.846;9.610;2023-04-26T04:03:25;12.27;;;10.57;;
16326;SDS011;34812;49.846;9.610;2023-04-26T04:04:29;12.13;;;10.60;;
16326;SDS011;34812;49.846;9.610;2023-04-26T04:05:29;14.60;;;12.67;;
16326;SDS011;34812;49.846;9.610;2023-04-26T04:06:32;14.00;;;11.90;;
16326;SDS011;34812;49.846;9.610;2023-04-26T04:07:34;15.97;;;12.07;;
16326;SDS011;34812;49.846;9.610;2023-04-26T04:08:36;13.30;;;11.67;;
16326;SDS011;34812;49.846;9.610;2023-04-26T04:09:37;14.70;;;11.63;;
16326;SDS011;34812;49.846;9.610;2023-04-26T04:10:39;14.33;;;11.23;;
16326;SDS011;34812;49.846;9.610;2023-04-26T04:11:42;11.50;;;10.27;;
16326;SDS011;34812;49.846;9.610;2023-04-26T04:12:45;13.07;;;10.23;;
16326;SDS011;34812;49.846;9.610;2023-04-26T04:13:47;12.53;;;10.50;;
16326;SDS011;34812;49.846;9.610;2023-04-26T04:14:49;13.10;;;10.70;;
16326;SDS011;34812;49.846;9.610;2023-04-26T04:15:50;13.43;;;11.10;;
16326;SDS011;34812;49.846;9.610;2023-04-26T04:16:51;13.07;;;10.60;;
16326;SDS011;34812;49.846;9.610;2023-04-26T04:17:52;14.10;;;11.17;;
16326;SDS011;34812;49.846;9.610;2023-04-26T04:18:54;11.60;;;9.93;;
16326;SDS011;34812;49.846;9.610;2023-04-26T04:19:55;12.17;;;10.30;;
16326;SDS011;34812;49.846;9.610;2023-04-26T04:20:57;16.83;;;12.17;;
16326;SDS011;34812;49.846;9.610;2023-04-26T04:21:58;17.77;;;11.83;;
16326;SDS011;34812;49.846;9.610;2023-04-26T04:23:00;12.43;;;11.17;;
16326;SDS011;34812;49.846;9.610;2023-04-26T04:24:03;14.17;;;12.23;;
16326;SDS011;34812;49.846;9.610;2023-04-26T04:25:06;15.33;;;11.50;;
16326;SDS011;34812;49.846;9.610;2023-04-26T04:26:08;15.00;;;12.50;;
16326;SDS011;34812;49.846;9.610;2023-04-26T04:27:11;14.90;;;12.67;;
16326;SDS011;34812;49.846;9.610;2023-04-26T04:28:14;12.67;;;11.30;;
16326;SDS011;34812;49.846;9.610;2023-04-26T04:29:19;14.10;;;11.67;;
16326;SDS011;34812;49.846;9.610;2023-04-26T04:30:20;13.50;;;10.77;;
16326;SDS011;34812;49.846;9.610;2023-04-26T04:31:23;14.43;;;11.77;;
16326;SDS011;34812;49.846;9.610;2023-04-26T04:32:24;14.73;;;10.70;;
16326;SDS011;34812;49.846;9.610;2023-04-26T04:33:26;14.50;;;11.87;;
16326;SDS011;34812;49.846;9.610;2023-04-26T04:34:27;14.97;;;11.43;;
16326;SDS011;34812;49.846;9.610;2023-04-26T04:35:30;19.03;;;12.17;;
16326;SDS011;34812;49.846;9.610;2023-04-26T04:36:33;12.73;;;11.00;;
16326;SDS011;34812;49.846;9.610;2023-04-26T04:37:35;14.37;;;12.23;;
16326;SDS011;34812;49.846;9.610;2023-04-26T04:38:37;13.17;;;11.83;;
16326;SDS011;34812;49.846;9.610;2023-04-26T04:39:40;17.97;;;13.50;;
16326;SDS011;34812;49.846;9.610;2023-04-26T04:40:41;15.30;;;12.67;;
16326;SDS011;34812;49.846;9.610;2023-04-26T04:41:44;15.23;;;12.47;;
16326;SDS011;34812;49.846;9.610;2023-04-26T04:42:47;17.83;;;12.97;;
16326;SDS011;34812;49.846;9.610;2023-04-26T04:43:50;16.67;;;13.57;;
16326;SDS011;34812;49.846;9.610;2023-04-26T04:44:54;16.17;;;13.83;;
16326;SDS011;34812;49.846;9.610;2023-04-26T04:45:58;15.80;;;13.90;;
16326;SDS011;34812;49.846;9.610;2023-04-26T04:46:59;21.53;;;12.40;;
16326;SDS011;34812;49.846;9.610;2023-04-26T04:48:01;16.60;;;14.43;;
16326;SDS011;34812;49.846;9.610;2023-04-26T04:49:04;17.53;;;12.70;;
16326;SDS011;34812;49.846;9.610;2023-04-26T04:50:08;12.90;;;10.27;;
16326;SDS011;34812;49.846;9.610;2023-04-26T04:51:09;13.47;;;10.43;;
16326;SDS011;34812;49.846;9.610;2023-04-26T04:52:11;13.43;;;10.90;;
16326;SDS011;34812;49.846;9.610;2023-04-26T04:53:12;11.60;;;10.37;;
16326;SDS011;34812;49.846;9.610;2023-04-26T04:54:15;14.10;;;10.03;;
16326;SDS011;34812;49.846;9.610;2023-04-26T04:55:19;11.53;;;9.80;;
16326;SDS011;34812;49.846;9.610;2023-04-26T04:56:21;14.10;;;10.23;;
16326;SDS011;34812;49.846;9.610;2023-04-26T04:57:23;12.60;;;9.77;;
16326;SDS011;34812;49.846;9.610;2023-04-26T04:58:25;11.40;;;9.77;;
16326;SDS011;34812;49.846;9.610;2023-04-26T04:59:26;11.60;;;9.53;;
16326;SDS011;34812;49.846;9.610;2023-04-26T05:00:30;10.37;;;9.37;;
16326;SDS011;34812;49.846;9.610;2023-04-26T05:01:41;11.47;;;9.50;;
16326;SDS011;34812;49.846;9.610;2023-04-26T05:02:47;14.00;;;9.60;;
16326;SDS011;34812;49.846;9.610;2023-04-26T05:03:49;15.93;;;9.67;;
16326;SDS011;34812;49.846;9.610;2023-04-26T05:04:50;12.10;;;9.67;;
16326;SDS011;34812;49.846;9.610;2023-04-26T05:05:51;9.97;;;8.97;;
16326;SDS011;34812;49.846;9.610;2023-04-26T05:06:53;10.60;;;9.50;;
16326;SDS011;34812;49.846;9.610;2023-04-26T05:07:56;12.93;;;9.37;;
16326;SDS011;34812;49.846;9.610;2023-04-26T05:08:58;13.77;;;10.10;;
16326;SDS011;34812;49.846;9.610;2023-04-26T05:09:59;11.97;;;9.53;;
16326;SDS011;34812;49.846;9.610;2023-04-26T05:11:02;12.60;;;9.93;;
16326;SDS011;34812;49.846;9.610;2023-04-26T05:12:02;13.70;;;10.10;;
16326;SDS011;34812;49.846;9.610;2023-04-26T05:13:05;11.80;;;10.70;;
16326;SDS011;34812;49.846;9.610;2023-04-26T05:14:05;13.50;;;10.40;;
16326;SDS011;34812;49.846;9.610;2023-04-26T05:15:07;10.93;;;9.83;;
16326;SDS011;34812;49.846;9.610;2023-04-26T05:16:10;13.83;;;10.53;;
16326;SDS011;34812;49.846;9.610;2023-04-26T05:17:12;12.07;;;9.60;;
16326;SDS011;34812;49.846;9.610;2023-04-26T05:18:13;14.07;;;9.07;;
16326;SDS011;34812;49.846;9.610;2023-04-26T05:19:15;13.43;;;8.70;;
16326;SDS011;34812;49.846;9.610;2023-04-26T05:20:16;10.23;;;8.07;;
16326;SDS011;34812;49.846;9.610;2023-04-26T05:21:18;10.37;;;7.67;;
16326;SDS011;34812;49.846;9.610;2023-04-26T05:22:19;10.27;;;8.10;;
16326;SDS011;34812;49.846;9.610;2023-04-26T05:23:21;8.27;;;7.47;;
16326;SDS011;34812;49.846;9.610;2023-04-26T05:24:22;11.07;;;8.10;;
16326;SDS011;34812;49.846;9.610;2023-04-26T05:25:24;8.83;;;7.93;;
16326;SDS011;34812;49.846;9.610;2023-04-26T05:26:31;8.37;;;7.40;;
16326;SDS011;34812;49.846;9.610;2023-04-26T05:27:53;12.57;;;8.37;;
16326;SDS011;34812;49.846;9.610;2023-04-26T05:29:18;9.13;;;8.13;;
16326;SDS011;34812;49.846;9.610;2023-04-26T05:30:25;11.80;;;7.87;;
16326;SDS011;34812;49.846;9.610;2023-04-26T05:31:39;8.53;;;7.37;;
16326;SDS011;34812;49.846;9.610;2023-04-26T05:32:53;8.77;;;7.70;;
16326;SDS011;34812;49.846;9.610;2023-04-26T05:34:24;9.80;;;6.83;;
16326;SDS011;34812;49.846;9.610;2023-04-26T05:35:30;9.17;;;7.13;;
16326;SDS011;34812;49.846;9.610;2023-04-26T05:36:30;13.53;;;7.30;;
16326;SDS011;34812;49.846;9.610;2023-04-26T05:37:32;7.80;;;6.90;;
16326;SDS011;34812;49.846;9.610;2023-04-26T05:38:34;12.27;;;6.53;;
16326;SDS011;34812;49.846;9.610;2023-04-26T05:39:37;8.23;;;7.50;;
16326;SDS011;34812;49.846;9.610;2023-04-26T05:40:37;9.07;;;7.13;;
16326;SDS011;34812;49.846;9.610;2023-04-26T05:41:39;9.17;;;7.77;;
16326;SDS011;34812;49.846;9.610;2023-04-26T05:42:41;10.93;;;7.57;;
16326;SDS011;34812;49.846;9.610;2023-04-26T05:43:43;8.03;;;7.27;;
16326;SDS011;34812;49.846;9.610;2023-04-26T05:44:46;10.23;;;7.97;;
16326;SDS011;34812;49.846;9.610;2023-04-26T05:45:50;8.00;;;7.30;;
16326;SDS011;34812;49.846;9.610;2023-04-26T05:46:53;10.17;;;7.67;;
16326;SDS011;34812;49.846;9.610;2023-04-26T05:47:55;8.80;;;6.80;;
16326;SDS011;34812;49.846;9.610;2023-04-26T05:48:58;7.57;;;6.93;;
16326;SDS011;34812;49.846;9.610;2023-04-26T05:50:01;9.70;;;6.97;;
16326;SDS011;34812;49.846;9.610;2023-04-26T05:51:02;9.97;;;7.27;;
16326;SDS011;34812;49.846;9.610;2023-04-26T05:52:04;8.63;;;7.53;;
16326;SDS011;34812;49.846;9.610;2023-04-26T05:53:05;8.80;;;8.00;;
16326;SDS011;34812;49.846;9.610;2023-04-26T05:54:06;11.50;;;8.10;;
16326;SDS011;34812;49.846;9.610;2023-04-26T05:55:07;11.77;;;8.53;;
16326;SDS011;34812;49.846;9.610;2023-04-26T05:56:10;10.43;;;8.80;;
16326;SDS011;34812;49.846;9.610;2023-04-26T05:57:11;8.63;;;7.83;;
16326;SDS011;34812;49.846;9.610;2023-04-26T05:58:13;9.97;;;7.73;;
16326;SDS011;34812;49.846;9.610;2023-04-26T05:59:14;9.17;;;8.37;;
16326;SDS011;34812;49.846;9.610;2023-04-26T06:00:17;11.50;;;8.57;;
16326;SDS011;34812;49.846;9.610;2023-04-26T06:01:22;11.70;;;9.00;;
16326;SDS011;34812;49.846;9.610;2023-04-26T06:02:25;12.60;;;9.17;;
16326;SDS011;34812;49.846;9.610;2023-04-26T06:03:26;11.53;;;9.80;;
16326;SDS011;34812;49.846;9.610;2023-04-26T06:04:28;12.30;;;9.40;;
16326;SDS011;34812;49.846;9.610;2023-04-26T06:05:41;11.80;;;9.90;;
16326;SDS011;34812;49.846;9.610;2023-04-26T06:06:43;10.33;;;9.20;;